Погода Омаруруна неделю

Эронго, Намибия

04 - 10 марта
  • 04марта
    Сегодня
    +16°
    +38°
    Ясно и безоблачно
    ВремяПогодаТемператураВлажностьДавлениеВетер, м/сВероятность осадков
    02:00Ясно и безоблачно+22°C39 %662 мм2.5 м/с5 %
    05:00Ясно и безоблачно+19°C44 %661 мм2.4 м/с5 %
    08:00Ясно и безоблачно+21°C40 %662 мм1.6 м/с5 %
    11:00Ясно и безоблачно+31°C20 %664 мм3.3 м/с5 %
    14:00Ясно и безоблачно+36°C15 %663 мм3.7 м/с5 %
    17:00Ясно и безоблачно+36°C14 %662 мм7.0 м/с5 %
    20:00Ясно и безоблачно+29°C24 %662 мм5.9 м/с5 %
    23:00Ясно и безоблачно+24°C41 %663 мм3.0 м/с5 %
  • 05марта
    Вторник
    +15°
    +35°
    Ясно и безоблачно
    ВремяПогодаТемператураВлажностьДавлениеВетер, м/сВероятность осадков
    02:00Ясно и безоблачно+20°C45 %661 мм3.7 м/с5 %
    05:00Ясно и безоблачно+18°C47 %660 мм2.4 м/с5 %
    08:00Ясно и безоблачно+19°C41 %661 мм1.8 м/с5 %
    11:00Ясно и безоблачно+28°C16 %664 мм2.4 м/с5 %
    14:00Ясно и безоблачно+34°C13 %664 мм5.4 м/с5 %
    17:00Ясно и безоблачно+33°C12 %663 мм7.7 м/с5 %
    20:00Ясно и безоблачно+29°C16 %662 мм4.4 м/с5 %
    23:00Ясно и безоблачно+23°C28 %663 мм0.6 м/с5 %
  • 06марта
    Среда
    +16°
    +37°
    Ясно и безоблачно
    ВремяПогодаТемператураВлажностьДавлениеВетер, м/сВероятность осадков
    02:00Ясно и безоблачно+19°C37 %661 мм0.9 м/с5 %
    05:00Ясно и безоблачно+16°C41 %660 мм0.6 м/с5 %
    08:00Ясно и безоблачно+18°C38 %662 мм1.7 м/с5 %
    11:00Ясно и безоблачно+29°C15 %664 мм0.5 м/с5 %
    14:00Ясно и безоблачно+35°C10 %664 мм4.1 м/с5 %
    17:00Ясно и безоблачно+36°C9 %663 мм7.1 м/с5 %
    20:00Ясно и безоблачно+28°C19 %664 мм5.1 м/с5 %
    23:00Ясно и безоблачно+24°C18 %664 мм2.3 м/с5 %
  • 07марта
    Четверг
    +17°
    +37°
    Ясно и безоблачно
    ВремяПогодаТемператураВлажностьДавлениеВетер, м/сВероятность осадков
    02:00Ясно и безоблачно+20°C19 %663 мм2.1 м/с5 %
    05:00Ясно и безоблачно+17°C27 %661 мм2.7 м/с5 %
    08:00Ясно и безоблачно+19°C28 %663 мм3.1 м/с5 %
    11:00Ясно и безоблачно+30°C13 %666 мм3.5 м/с5 %
    14:00Ясно и безоблачно+35°C12 %664 мм3.1 м/с5 %
    17:00Ясно и безоблачно+36°C9 %663 мм2.9 м/с5 %
    20:00Ясно и безоблачно+30°C21 %663 мм5.5 м/с5 %
    23:00Ясно и безоблачно+24°C33 %663 мм3.8 м/с5 %
  • 08марта
    Пятница
    +19°
    +39°
    Ясно и безоблачно
    ВремяПогодаТемператураВлажностьДавлениеВетер, м/сВероятность осадков
    02:00Ясно и безоблачно+20°C31 %662 мм4.7 м/с5 %
    05:00Ясно и безоблачно+18°C32 %661 мм3.0 м/с5 %
    08:00Ясно и безоблачно+20°C27 %662 мм2.7 м/с5 %
    11:00Ясно и безоблачно+34°C20 %664 мм5.0 м/с5 %
    14:00Ясно и безоблачно+39°C15 %663 мм4.3 м/с5 %
    17:00Практически безоблачно+38°C16 %662 мм0.9 м/с5 %
    20:00Ясно и безоблачно+33°C22 %663 мм2.5 м/с5 %
    23:00Ясно и безоблачно+27°C22 %663 мм3.3 м/с4 %
Мы используем cookies
Соглашаюсь